Time;durP1;ratioP1;P1;durP2;ratioP2;P2;SDS_P1;SDS_P2;PMS_P1;PMS_P2;Temp;Humidity;BMP_temperature;BMP_pressure;BME280_temperature;BME280_humidity;BME280_pressure;Samples;Min_cycle;Max_cycle;Signal;HPM_P1;HPM_P2
2023/06/28 00:01:53;;;;;;;;;;;18.40;93.80;;;;;;5027172;28;19925;-62
2023/06/28 00:04:25;;;;;;;;;;;18.50;93.90;;;;;;5028029;28;19925;-61
2023/06/28 00:06:57;;;;;;;;;;;18.40;93.90;;;;;;5027978;28;19929;-61
2023/06/28 00:09:29;;;;;;;;;;;18.40;94.20;;;;;;5028496;28;19925;-62
2023/06/28 00:12:00;;;;;;;;;;;18.30;94.10;;;;;;5025636;28;19929;-62
2023/06/28 00:14:32;;;;;;;;;;;18.30;94.00;;;;;;5027132;28;19937;-64
2023/06/28 00:17:04;;;;;;;;;;;18.40;94.10;;;;;;5026233;28;19932;-62
2023/06/28 00:19:36;;;;;;;;;;;18.30;94.30;;;;;;5026467;28;20399;-63
2023/06/28 00:22:08;;;;;;;;;;;18.40;94.30;;;;;;5028903;28;19929;-61
2023/06/28 00:24:40;;;;;;;;;;;18.40;94.70;;;;;;5022492;28;20019;-61
2023/06/28 00:27:06;;;;;;;;;;;18.40;94.50;;;;;;5031716;28;19926;-61
2023/06/28 00:29:38;;;;;;;;;;;18.40;94.70;;;;;;5027582;28;19931;-61
2023/06/28 00:32:10;;;;;;;;;;;18.40;94.60;;;;;;5024321;28;20068;-61
2023/06/28 00:34:43;;;;;;;;;;;18.30;94.70;;;;;;5025341;28;19933;-61
2023/06/28 00:37:15;;;;;;;;;;;18.30;94.60;;;;;;5011994;28;19925;-62
2023/06/28 00:39:48;;;;;;;;;;;18.40;94.70;;;;;;5028011;28;20019;-62
2023/06/28 00:42:20;;;;;;;;;;;18.40;94.50;;;;;;5027985;28;19945;-61
2023/06/28 00:44:53;;;;;;;;;;;18.50;95.10;;;;;;5028755;28;19924;-61
2023/06/28 00:47:27;;;;;;;;;;;18.50;95.90;;;;;;5011242;28;19936;-62
2023/06/28 00:50:00;;;;;;;;;;;18.50;97.50;;;;;;5032014;28;19929;-61
2023/06/28 00:52:31;;;;;;;;;;;18.50;98.50;;;;;;5025303;28;19929;-61
2023/06/28 00:55:03;;;;;;;;;;;18.40;98.50;;;;;;5029180;28;19935;-61
2023/06/28 00:57:35;;;;;;;;;;;18.40;98.70;;;;;;5027553;28;20512;-61
2023/06/28 01:00:09;;;;;;;;;;;18.30;99.20;;;;;;5028354;28;20602;-61
2023/06/28 01:02:41;;;;;;;;;;;18.20;99.20;;;;;;5032129;28;19935;-61
2023/06/28 01:05:13;;;;;;;;;;;18.10;99.60;;;;;;5026999;28;19928;-61
2023/06/28 01:07:50;;;;;;;;;;;18.00;99.90;;;;;;5042427;28;20497;-62
2023/06/28 01:10:22;;;;;;;;;;;17.90;99.90;;;;;;5028606;28;19964;-61
2023/06/28 01:12:54;;;;;;;;;;;17.90;99.90;;;;;;5020582;28;20440;-62
2023/06/28 01:15:27;;;;;;;;;;;18.00;99.90;;;;;;5029479;28;19924;-62
2023/06/28 01:18:00;;;;;;;;;;;18.00;99.90;;;;;;5026358;28;20304;-61
2023/06/28 01:20:31;;;;;;;;;;;18.00;99.90;;;;;;5028086;28;19932;-61
2023/06/28 01:22:58;;;;;;;;;;;17.80;99.90;;;;;;5030487;28;19968;-61
2023/06/28 01:25:30;;;;;;;;;;;17.70;99.90;;;;;;5022488;28;19932;-61
2023/06/28 01:28:02;;;;;;;;;;;17.40;99.90;;;;;;5033635;28;19926;-61
2023/06/28 01:30:37;;;;;;;;;;;17.20;99.90;;;;;;5036344;28;19925;-62
2023/06/28 01:33:08;;;;;;;;;;;17.00;99.90;;;;;;5027522;28;20647;-61
2023/06/28 01:35:40;;;;;;;;;;;16.70;99.90;;;;;;5029440;28;20820;-61
2023/06/28 01:38:13;;;;;;;;;;;16.60;99.90;;;;;;5030075;28;19979;-62
2023/06/28 01:40:48;;;;;;;;;;;16.40;99.90;;;;;;5022058;28;19935;-61
2023/06/28 01:43:21;;;;;;;;;;;16.30;99.90;;;;;;5029839;28;20413;-61
2023/06/28 01:45:55;;;;;;;;;;;16.20;99.90;;;;;;5021811;28;19929;-61
2023/06/28 01:48:23;;;;;;;;;;;16.20;99.90;;;;;;5027265;28;19929;-64
2023/06/28 01:50:55;;;;;;;;;;;16.20;99.90;;;;;;5029304;28;19933;-61
2023/06/28 01:53:27;;;;;;;;;;;16.10;99.90;;;;;;5028605;28;19929;-61
2023/06/28 01:55:59;;;;;;;;;;;16.20;99.90;;;;;;5028621;28;19926;-61
2023/06/28 01:58:31;;;;;;;;;;;16.20;99.90;;;;;;5026859;28;20019;-62
2023/06/28 02:01:02;;;;;;;;;;;16.20;99.90;;;;;;5025228;28;20421;-62
2023/06/28 02:03:29;;;;;;;;;;;16.20;99.90;;;;;;5028928;28;19925;-62
2023/06/28 02:06:01;;;;;;;;;;;16.20;99.90;;;;;;5028285;28;19933;-63
2023/06/28 02:08:32;;;;;;;;;;;16.20;99.90;;;;;;5026369;28;19940;-62
2023/06/28 02:11:04;;;;;;;;;;;16.20;99.90;;;;;;5027322;28;20423;-61
2023/06/28 02:13:36;;;;;;;;;;;16.20;99.90;;;;;;5026524;28;19925;-62
2023/06/28 02:16:08;;;;;;;;;;;16.20;99.90;;;;;;5027397;28;19935;-62
2023/06/28 02:18:41;;;;;;;;;;;16.20;99.90;;;;;;5028435;28;20405;-62
2023/06/28 02:21:16;;;;;;;;;;;16.20;99.90;;;;;;5030203;28;19925;-62
2023/06/28 02:23:48;;;;;;;;;;;16.20;99.90;;;;;;5025793;28;19925;-62
2023/06/28 02:26:20;;;;;;;;;;;16.20;99.90;;;;;;5024865;28;20328;-63
2023/06/28 02:28:46;;;;;;;;;;;16.20;99.90;;;;;;5029087;28;20011;-62
2023/06/28 02:31:16;;;;;;;;;;;16.10;99.90;;;;;;5041208;28;19980;-62
2023/06/28 02:33:45;;;;;;;;;;;16.10;99.90;;;;;;5027473;28;19929;-61
2023/06/28 02:36:12;;;;;;;;;;;16.10;99.90;;;;;;5028022;28;19929;-62
2023/06/28 02:38:44;;;;;;;;;;;16.10;99.90;;;;;;5026832;28;19929;-62
2023/06/28 02:41:16;;;;;;;;;;;16.00;99.90;;;;;;5026427;28;20304;-62
2023/06/28 02:43:47;;;;;;;;;;;16.10;99.90;;;;;;5029356;28;19931;-62
2023/06/28 02:46:19;;;;;;;;;;;16.00;99.90;;;;;;5026002;28;19986;-62
2023/06/28 02:48:45;;;;;;;;;;;16.00;99.90;;;;;;5012644;28;19962;-62
2023/06/28 02:51:17;;;;;;;;;;;15.90;99.90;;;;;;5043772;28;20464;-62
2023/06/28 02:53:49;;;;;;;;;;;15.90;99.90;;;;;;5028306;28;20047;-62
2023/06/28 02:56:23;;;;;;;;;;;15.80;99.90;;;;;;5025902;28;19929;-62
2023/06/28 02:59:20;;;;;;;;;;;15.80;99.90;;;;;;5029025;28;20314;-63
2023/06/28 03:01:54;;;;;;;;;;;15.70;99.90;;;;;;5025918;28;20363;-62
2023/06/28 03:04:27;;;;;;;;;;;15.70;99.90;;;;;;5025815;28;19929;-62
2023/06/28 03:07:01;;;;;;;;;;;15.60;99.90;;;;;;5024336;28;20305;-65
2023/06/28 03:09:33;;;;;;;;;;;15.60;99.90;;;;;;5024442;28;19943;-62
2023/06/28 03:12:01;;;;;;;;;;;15.50;99.90;;;;;;5029920;28;19933;-61
2023/06/28 03:14:28;;;;;;;;;;;15.50;99.90;;;;;;5028736;28;20476;-62
2023/06/28 03:17:00;;;;;;;;;;;15.50;99.90;;;;;;5010800;28;20305;-61
2023/06/28 03:19:32;;;;;;;;;;;15.50;99.90;;;;;;5025487;28;19932;-61
2023/06/28 03:22:04;;;;;;;;;;;15.50;99.90;;;;;;5027712;28;19935;-62
2023/06/28 03:24:35;;;;;;;;;;;15.40;99.90;;;;;;5030131;28;19925;-61
2023/06/28 03:27:07;;;;;;;;;;;15.40;99.90;;;;;;5026202;28;20454;-61
2023/06/28 03:29:40;;;;;;;;;;;15.40;99.90;;;;;;5026000;28;19974;-61
2023/06/28 03:32:12;;;;;;;;;;;15.30;99.90;;;;;;5026266;28;20449;-61
2023/06/28 03:34:43;;;;;;;;;;;15.20;99.90;;;;;;5027382;28;19931;-62
2023/06/28 03:37:16;;;;;;;;;;;15.20;99.90;;;;;;5014565;28;19952;-61
2023/06/28 03:39:43;;;;;;;;;;;15.00;99.90;;;;;;5022866;28;20459;-62
2023/06/28 03:42:15;;;;;;;;;;;15.00;99.90;;;;;;5031405;28;20028;-61
2023/06/28 03:44:47;;;;;;;;;;;14.90;99.90;;;;;;5027863;28;20037;-61
2023/06/28 03:47:19;;;;;;;;;;;14.90;99.90;;;;;;5023006;28;19929;-61
2023/06/28 03:49:50;;;;;;;;;;;14.80;99.90;;;;;;5026686;28;19936;-62
2023/06/28 03:52:26;;;;;;;;;;;14.90;99.90;;;;;;5023389;28;19987;-62
2023/06/28 03:54:57;;;;;;;;;;;14.80;99.90;;;;;;5024191;28;20320;-61
2023/06/28 03:57:30;;;;;;;;;;;14.80;99.90;;;;;;5025757;28;19926;-61
2023/06/28 03:59:57;;;;;;;;;;;14.80;99.90;;;;;;5027563;28;19932;-62
2023/06/28 04:02:39;;;;;;;;;;;14.80;99.90;;;;;;5023488;28;19926;-61
2023/06/28 04:05:06;;;;;;;;;;;14.80;99.90;;;;;;5025103;28;19979;-63
2023/06/28 04:07:38;;;;;;;;;;;14.70;99.90;;;;;;5027956;28;20305;-61
2023/06/28 04:10:10;;;;;;;;;;;14.70;99.90;;;;;;5025264;28;20401;-62
2023/06/28 04:12:42;;;;;;;;;;;14.70;99.90;;;;;;5025729;28;20015;-64
2023/06/28 04:15:10;;;;;;;;;;;14.70;99.90;;;;;;5026284;28;19933;-64
2023/06/28 04:17:42;;;;;;;;;;;14.70;99.90;;;;;;5026270;28;20368;-63
2023/06/28 04:20:13;;;;;;;;;;;14.70;99.90;;;;;;5026660;28;19932;-61
2023/06/28 04:22:40;;;;;;;;;;;14.70;99.90;;;;;;5029204;28;19932;-62
2023/06/28 04:25:12;;;;;;;;;;;14.70;99.90;;;;;;5029352;28;19933;-63
2023/06/28 04:27:44;;;;;;;;;;;14.70;99.90;;;;;;5032434;28;19957;-61
2023/06/28 04:30:15;;;;;;;;;;;14.80;99.90;;;;;;5028427;28;19925;-61
2023/06/28 04:32:47;;;;;;;;;;;14.80;99.90;;;;;;5033029;28;20401;-63
2023/06/28 04:35:14;;;;;;;;;;;14.70;99.90;;;;;;5039155;28;19940;-64
2023/06/28 04:37:47;;;;;;;;;;;14.80;99.90;;;;;;5029720;28;20371;-63
2023/06/28 04:40:19;;;;;;;;;;;14.70;99.90;;;;;;5029706;28;20447;-64
2023/06/28 04:42:46;;;;;;;;;;;14.70;99.90;;;;;;5033718;28;19929;-60
2023/06/28 04:45:17;;;;;;;;;;;14.70;99.90;;;;;;5029437;28;20301;-62
2023/06/28 04:47:49;;;;;;;;;;;14.80;99.90;;;;;;5032120;28;19925;-61
2023/06/28 04:50:21;;;;;;;;;;;14.70;99.90;;;;;;5031583;28;20008;-62
2023/06/28 04:52:53;;;;;;;;;;;14.60;99.90;;;;;;5035183;28;20016;-61
2023/06/28 04:55:25;;;;;;;;;;;14.70;99.90;;;;;;5029443;28;19929;-60
2023/06/28 04:57:56;;;;;;;;;;;14.70;99.90;;;;;;5029851;28;19953;-61
2023/06/28 05:00:29;;;;;;;;;;;14.70;99.90;;;;;;5028047;28;20405;-61
2023/06/28 05:03:01;;;;;;;;;;;14.70;99.90;;;;;;5027108;28;19969;-61
2023/06/28 05:05:32;;;;;;;;;;;14.70;99.90;;;;;;5029219;28;20019;-60
2023/06/28 05:08:04;;;;;;;;;;;14.80;99.90;;;;;;5032447;28;20464;-60
2023/06/28 05:10:36;;;;;;;;;;;14.80;99.90;;;;;;5028413;28;19931;-61
2023/06/28 05:13:08;;;;;;;;;;;14.80;99.90;;;;;;5029640;28;20390;-61
2023/06/28 05:15:35;;;;;;;;;;;14.80;99.90;;;;;;5030329;28;20306;-61
2023/06/28 05:18:07;;;;;;;;;;;14.80;99.90;;;;;;5027574;28;20380;-61
2023/06/28 05:20:38;;;;;;;;;;;14.80;99.90;;;;;;5026705;28;19925;-61
2023/06/28 05:23:14;;;;;;;;;;;14.90;99.90;;;;;;5027386;28;19952;-61
2023/06/28 05:25:46;;;;;;;;;;;14.90;99.90;;;;;;5027861;28;19936;-61
2023/06/28 05:28:18;;;;;;;;;;;14.90;99.90;;;;;;5028010;28;19933;-61
2023/06/28 05:30:50;;;;;;;;;;;14.80;99.90;;;;;;5027787;28;19956;-61
2023/06/28 05:33:21;;;;;;;;;;;14.90;99.90;;;;;;5029882;28;20305;-60
2023/06/28 05:35:53;;;;;;;;;;;14.80;99.90;;;;;;5029114;28;19925;-61
2023/06/28 05:38:20;;;;;;;;;;;14.90;99.90;;;;;;5027350;28;19964;-61
2023/06/28 05:41:10;;;;;;;;;;;14.90;99.90;;;;;;5024035;28;19925;-61
2023/06/28 05:43:42;;;;;;;;;;;14.90;99.90;;;;;;5020893;28;20020;-61
2023/06/28 05:46:14;;;;;;;;;;;14.90;99.90;;;;;;5023131;28;20363;-61
2023/06/28 05:48:46;;;;;;;;;;;14.90;99.90;;;;;;5025852;28;19929;-61
2023/06/28 05:51:18;;;;;;;;;;;15.00;99.90;;;;;;5028920;28;19925;-61
2023/06/28 05:53:50;;;;;;;;;;;15.00;99.90;;;;;;5029626;28;19940;-60
2023/06/28 05:56:17;;;;;;;;;;;15.00;99.90;;;;;;5026207;28;19961;-61
2023/06/28 05:58:49;;;;;;;;;;;15.10;99.90;;;;;;5022807;28;19935;-61
2023/06/28 06:01:20;;;;;;;;;;;15.00;99.90;;;;;;5019965;28;19925;-61
2023/06/28 06:03:52;;;;;;;;;;;15.10;99.90;;;;;;5028224;28;19937;-61
2023/06/28 06:06:24;;;;;;;;;;;15.10;99.90;;;;;;5025881;28;20508;-61
2023/06/28 06:08:56;;;;;;;;;;;15.20;99.90;;;;;;5023930;28;19925;-61
2023/06/28 06:11:28;;;;;;;;;;;15.20;99.90;;;;;;5028885;28;20665;-61
2023/06/28 06:14:00;;;;;;;;;;;15.20;99.90;;;;;;5026385;28;19926;-61
2023/06/28 06:16:26;;;;;;;;;;;15.20;99.90;;;;;;5025255;28;20031;-61
2023/06/28 06:18:58;;;;;;;;;;;15.20;99.90;;;;;;5025086;28;19933;-61
2023/06/28 06:21:30;;;;;;;;;;;15.10;99.90;;;;;;5026320;28;19931;-61
2023/06/28 06:24:02;;;;;;;;;;;15.10;99.90;;;;;;5027363;28;19929;-62
2023/06/28 06:26:35;;;;;;;;;;;15.20;99.90;;;;;;5026183;28;19925;-61
2023/06/28 06:29:06;;;;;;;;;;;15.20;99.90;;;;;;5024890;28;19969;-61
2023/06/28 06:31:33;;;;;;;;;;;15.30;99.90;;;;;;5028389;28;19933;-61
2023/06/28 06:34:03;;;;;;;;;;;15.40;99.90;;;;;;5028466;28;19961;-61
2023/06/28 06:36:36;;;;;;;;;;;15.50;99.90;;;;;;5023530;28;19929;-63
2023/06/28 06:39:08;;;;;;;;;;;15.50;99.90;;;;;;5027915;28;19936;-63
2023/06/28 06:41:39;;;;;;;;;;;15.60;99.90;;;;;;5028230;28;19940;-63
2023/06/28 06:44:11;;;;;;;;;;;15.70;99.90;;;;;;5028939;28;20309;-63
2023/06/28 06:46:43;;;;;;;;;;;15.70;99.90;;;;;;5027763;28;19991;-63
2023/06/28 06:49:18;;;;;;;;;;;15.70;99.90;;;;;;5028742;28;19929;-64
2023/06/28 06:51:50;;;;;;;;;;;15.70;99.90;;;;;;5028625;28;20671;-64
2023/06/28 06:54:22;;;;;;;;;;;15.80;99.90;;;;;;5023526;28;19929;-64
2023/06/28 06:56:53;;;;;;;;;;;16.00;99.90;;;;;;5029332;28;19940;-64
2023/06/28 06:59:26;;;;;;;;;;;16.00;99.90;;;;;;5026532;28;19933;-64
2023/06/28 07:01:58;;;;;;;;;;;16.10;99.90;;;;;;5031696;28;19925;-64
2023/06/28 07:04:29;;;;;;;;;;;16.20;99.90;;;;;;5028271;28;19969;-63
2023/06/28 07:07:01;;;;;;;;;;;16.30;99.90;;;;;;5027681;28;19929;-63
2023/06/28 07:09:33;;;;;;;;;;;16.40;99.90;;;;;;5024683;28;20439;-64
2023/06/28 07:12:00;;;;;;;;;;;16.40;99.90;;;;;;5027887;28;19928;-63
2023/06/28 07:14:31;;;;;;;;;;;16.40;99.90;;;;;;5027890;28;19963;-63
2023/06/28 07:17:03;;;;;;;;;;;16.40;99.90;;;;;;5028228;28;19995;-64
2023/06/28 07:19:35;;;;;;;;;;;16.40;99.90;;;;;;5030790;28;19932;-61
2023/06/28 07:22:07;;;;;;;;;;;16.40;99.90;;;;;;5026014;28;19929;-61
2023/06/28 07:24:38;;;;;;;;;;;16.50;99.90;;;;;;5026404;28;20673;-61
2023/06/28 07:27:10;;;;;;;;;;;16.50;99.90;;;;;;5026422;28;19935;-61
2023/06/28 07:29:42;;;;;;;;;;;16.60;99.90;;;;;;5027960;28;19925;-61
2023/06/28 07:32:14;;;;;;;;;;;16.60;99.90;;;;;;5025502;28;19929;-61
2023/06/28 07:34:45;;;;;;;;;;;16.80;99.90;;;;;;5027459;28;19925;-65
2023/06/28 07:37:17;;;;;;;;;;;16.90;99.90;;;;;;5026278;28;19996;-63
2023/06/28 07:39:49;;;;;;;;;;;17.00;99.90;;;;;;5027400;28;19929;-64
2023/06/28 07:42:21;;;;;;;;;;;17.10;99.90;;;;;;5026996;28;20368;-63
2023/06/28 07:44:53;;;;;;;;;;;17.20;99.90;;;;;;5028071;28;19937;-64
2023/06/28 07:47:25;;;;;;;;;;;17.30;99.90;;;;;;5026467;28;20008;-65
2023/06/28 07:49:56;;;;;;;;;;;17.40;99.90;;;;;;5027681;28;20010;-63
2023/06/28 07:52:28;;;;;;;;;;;17.40;99.90;;;;;;5027672;28;19936;-61
2023/06/28 07:55:02;;;;;;;;;;;17.40;99.90;;;;;;5020344;28;20294;-62
2023/06/28 07:57:34;;;;;;;;;;;17.50;99.90;;;;;;5023599;28;19988;-61
2023/06/28 08:00:06;;;;;;;;;;;17.60;99.90;;;;;;5024594;28;19953;-61
2023/06/28 08:02:38;;;;;;;;;;;17.60;99.90;;;;;;5024751;28;19972;-61
2023/06/28 08:05:05;;;;;;;;;;;17.60;99.90;;;;;;5026346;28;19929;-61
2023/06/28 08:07:36;;;;;;;;;;;17.70;99.90;;;;;;5023639;28;19926;-61
2023/06/28 08:10:08;;;;;;;;;;;17.80;99.90;;;;;;5028782;28;19971;-61
2023/06/28 08:12:40;;;;;;;;;;;17.80;99.90;;;;;;5023535;28;19964;-61
2023/06/28 08:15:11;;;;;;;;;;;17.90;99.90;;;;;;5024264;28;19931;-61
2023/06/28 08:17:43;;;;;;;;;;;18.00;99.90;;;;;;5031377;28;19933;-63
2023/06/28 08:20:15;;;;;;;;;;;18.00;99.90;;;;;;5029768;28;19930;-62
2023/06/28 08:22:47;;;;;;;;;;;18.10;99.90;;;;;;5036069;28;19999;-62
2023/06/28 08:25:19;;;;;;;;;;;18.10;99.90;;;;;;5032082;28;19932;-64
2023/06/28 08:27:50;;;;;;;;;;;18.30;99.90;;;;;;5034350;28;19929;-62
2023/06/28 08:30:22;;;;;;;;;;;18.50;99.90;;;;;;5035961;28;19936;-65
2023/06/28 08:32:54;;;;;;;;;;;18.60;99.90;;;;;;5035180;28;19929;-62
2023/06/28 08:35:25;;;;;;;;;;;18.70;99.90;;;;;;5030917;28;20412;-63
2023/06/28 08:37:58;;;;;;;;;;;18.70;99.90;;;;;;5029981;28;20296;-62
2023/06/28 08:40:30;;;;;;;;;;;18.70;99.90;;;;;;5032082;28;19933;-62
2023/06/28 08:43:03;;;;;;;;;;;18.70;99.90;;;;;;5032023;28;19975;-62
2023/06/28 08:45:35;;;;;;;;;;;18.80;99.90;;;;;;5025281;28;20622;-61
2023/06/28 08:48:08;;;;;;;;;;;18.80;99.90;;;;;;5027698;28;19925;-61
2023/06/28 08:50:41;;;;;;;;;;;18.90;99.90;;;;;;5025834;28;19925;-62
2023/06/28 08:53:16;;;;;;;;;;;19.00;99.90;;;;;;5032850;28;19995;-63
2023/06/28 08:55:48;;;;;;;;;;;19.20;99.90;;;;;;5025191;28;19964;-62
2023/06/28 08:58:20;;;;;;;;;;;19.30;99.90;;;;;;5023412;28;19926;-65
2023/06/28 09:00:52;;;;;;;;;;;19.40;99.90;;;;;;5028976;28;19932;-63
2023/06/28 09:03:25;;;;;;;;;;;19.50;99.90;;;;;;5032145;28;20018;-63
2023/06/28 09:05:57;;;;;;;;;;;19.30;99.90;;;;;;5031361;28;19979;-63
2023/06/28 09:08:28;;;;;;;;;;;19.30;99.90;;;;;;5028372;28;19929;-61
2023/06/28 09:11:00;;;;;;;;;;;19.40;99.90;;;;;;5027841;28;19932;-62
2023/06/28 09:13:33;;;;;;;;;;;19.40;99.90;;;;;;5026182;28;19932;-61
2023/06/28 09:16:08;;;;;;;;;;;19.40;99.90;;;;;;5026266;28;19941;-62
2023/06/28 09:18:39;;;;;;;;;;;19.40;99.90;;;;;;5016010;28;20380;-64
2023/06/28 09:21:23;;;;;;;;;;;19.40;99.90;;;;;;5032532;28;19956;-62
2023/06/28 09:23:55;;;;;;;;;;;19.50;99.90;;;;;;5029918;28;19929;-62
2023/06/28 09:26:45;;;;;;;;;;;19.70;99.90;;;;;;5024208;28;19929;-65
2023/06/28 09:29:17;;;;;;;;;;;19.90;99.90;;;;;;5015633;28;19940;-63
2023/06/28 09:31:49;;;;;;;;;;;20.30;99.90;;;;;;5028769;28;20401;-62
2023/06/28 09:34:21;;;;;;;;;;;20.30;99.90;;;;;;5022602;28;19932;-64
2023/06/28 09:36:54;;;;;;;;;;;20.20;99.90;;;;;;5028692;28;20328;-62
2023/06/28 09:39:26;;;;;;;;;;;20.20;99.90;;;;;;5022299;28;19925;-65
2023/06/28 09:41:53;;;;;;;;;;;20.20;99.90;;;;;;5022609;28;19932;-62
2023/06/28 09:44:29;;;;;;;;;;;20.10;99.90;;;;;;5023472;28;19941;-62
2023/06/28 09:46:59;;;;;;;;;;;20.40;99.90;;;;;;5024064;28;20016;-62
2023/06/28 09:49:31;;;;;;;;;;;20.60;99.90;;;;;;5013318;28;19925;-62
2023/06/28 09:52:04;;;;;;;;;;;20.70;99.90;;;;;;5021370;28;20528;-63
2023/06/28 09:54:45;;;;;;;;;;;20.80;99.90;;;;;;5018729;28;20020;-61
2023/06/28 09:57:18;;;;;;;;;;;20.70;99.90;;;;;;5018052;28;20012;-63
2023/06/28 09:59:52;;;;;;;;;;;20.60;99.90;;;;;;5017048;28;20295;-63
2023/06/28 10:02:25;;;;;;;;;;;20.50;99.90;;;;;;5026548;28;19925;-62
2023/06/28 10:04:57;;;;;;;;;;;20.50;99.90;;;;;;5024737;28;19963;-62
2023/06/28 10:07:29;;;;;;;;;;;20.60;99.90;;;;;;5021662;28;20024;-62
2023/06/28 10:10:01;;;;;;;;;;;20.50;99.90;;;;;;5020915;28;19925;-62
2023/06/28 10:12:33;;;;;;;;;;;20.60;99.90;;;;;;5018752;28;19929;-62
2023/06/28 10:15:10;;;;;;;;;;;20.80;99.90;;;;;;5020158;28;19936;-62
2023/06/28 10:17:42;;;;;;;;;;;21.10;99.90;;;;;;5041030;28;19925;-67
2023/06/28 10:20:14;;;;;;;;;;;21.40;99.90;;;;;;5021019;28;20008;-63
2023/06/28 10:22:46;;;;;;;;;;;21.70;99.90;;;;;;5021350;28;19929;-63
2023/06/28 10:25:13;;;;;;;;;;;21.80;99.90;;;;;;5027861;28;19925;-65
2023/06/28 10:27:46;;;;;;;;;;;22.10;99.90;;;;;;5020961;28;20503;-65
2023/06/28 10:30:19;;;;;;;;;;;22.20;99.90;;;;;;5026494;28;19925;-64
2023/06/28 10:32:52;;;;;;;;;;;22.20;99.90;;;;;;5021610;28;20282;-65
2023/06/28 10:35:20;;;;;;;;;;;22.10;99.90;;;;;;5029454;28;19983;-64
2023/06/28 10:37:55;;;;;;;;;;;21.90;99.90;;;;;;5022152;28;20021;-64
2023/06/28 10:40:27;;;;;;;;;;;21.80;99.90;;;;;;5011149;28;20278;-65
2023/06/28 10:42:59;;;;;;;;;;;21.80;99.90;;;;;;5025467;28;20509;-64
2023/06/28 10:45:36;;;;;;;;;;;21.90;99.90;;;;;;5024621;28;19990;-65
2023/06/28 10:48:10;;;;;;;;;;;22.10;99.90;;;;;;5028336;28;19932;-64
2023/06/28 10:50:42;;;;;;;;;;;22.30;99.90;;;;;;5027453;28;20022;-67
2023/06/28 10:53:21;;;;;;;;;;;22.50;99.90;;;;;;5020862;28;20067;-63
2023/06/28 10:56:08;;;;;;;;;;;22.40;99.90;;;;;;5024379;28;19925;-62
2023/06/28 10:58:41;;;;;;;;;;;22.40;99.90;;;;;;5017913;28;19933;-62
2023/06/28 11:01:30;;;;;;;;;;;22.30;99.90;;;;;;5022665;28;20419;-62
2023/06/28 11:04:18;;;;;;;;;;;22.60;99.90;;;;;;5024864;28;20020;-63
2023/06/28 11:07:02;;;;;;;;;;;22.60;99.90;;;;;;5024912;28;20476;-63
2023/06/28 11:09:29;;;;;;;;;;;22.60;99.90;;;;;;5016816;28;19988;-63
2023/06/28 11:12:07;;;;;;;;;;;22.70;99.90;;;;;;5024041;28;19932;-63
2023/06/28 11:14:39;;;;;;;;;;;23.00;99.90;;;;;;5022981;28;20270;-62
2023/06/28 11:17:11;;;;;;;;;;;23.20;99.90;;;;;;5021966;28;19964;-65
2023/06/28 11:19:43;;;;;;;;;;;23.30;98.90;;;;;;5022883;28;20027;-63
2023/06/28 11:22:15;;;;;;;;;;;23.40;98.20;;;;;;5021217;28;19929;-62
2023/06/28 11:24:47;;;;;;;;;;;23.20;97.50;;;;;;5021324;28;19932;-65
2023/06/28 11:27:21;;;;;;;;;;;23.20;96.60;;;;;;5023550;28;19947;-62
2023/06/28 11:29:53;;;;;;;;;;;23.20;97.00;;;;;;5024958;28;19925;-61
2023/06/28 11:32:28;;;;;;;;;;;23.00;97.30;;;;;;5027720;28;19936;-61
2023/06/28 11:35:00;;;;;;;;;;;22.90;97.50;;;;;;5037790;28;19931;-61
2023/06/28 11:37:32;;;;;;;;;;;22.80;97.80;;;;;;5026922;28;19929;-62
2023/06/28 11:40:04;;;;;;;;;;;22.80;98.10;;;;;;5029688;28;19925;-61
2023/06/28 11:42:41;;;;;;;;;;;23.10;97.60;;;;;;5026294;28;20575;-61
2023/06/28 11:45:18;;;;;;;;;;;23.30;96.70;;;;;;5030606;28;20367;-61
2023/06/28 11:47:50;;;;;;;;;;;23.60;95.30;;;;;;5030849;28;19987;-61
2023/06/28 11:50:22;;;;;;;;;;;23.80;95.90;;;;;;5027283;28;19957;-62
2023/06/28 11:52:54;;;;;;;;;;;23.80;94.00;;;;;;5027349;28;19929;-61
2023/06/28 11:55:30;;;;;;;;;;;24.00;93.40;;;;;;5026680;28;20032;-61
2023/06/28 11:57:56;;;;;;;;;;;24.20;94.10;;;;;;5026693;28;20079;-61
2023/06/28 12:00:41;;;;;;;;;;;24.20;94.30;;;;;;5025468;28;20301;-62
2023/06/28 12:03:13;;;;;;;;;;;24.20;93.40;;;;;;5023229;28;20380;-63
2023/06/28 12:05:52;;;;;;;;;;;24.30;93.40;;;;;;5025146;28;20164;-61
2023/06/28 12:08:24;;;;;;;;;;;24.00;91.80;;;;;;5008907;28;20317;-64
2023/06/28 12:10:56;;;;;;;;;;;23.80;92.20;;;;;;5024579;28;19933;-64
2023/06/28 12:13:28;;;;;;;;;;;24.00;91.50;;;;;;5023340;28;20857;-63
2023/06/28 12:16:11;;;;;;;;;;;24.30;92.00;;;;;;5022888;28;19925;-61
2023/06/28 12:18:54;;;;;;;;;;;24.50;91.20;;;;;;5021800;28;20680;-61
2023/06/28 12:21:26;;;;;;;;;;;24.80;91.30;;;;;;5024451;28;20036;-63
2023/06/28 12:24:12;;;;;;;;;;;25.10;90.70;;;;;;5018794;28;19933;-61
2023/06/28 12:26:44;;;;;;;;;;;25.20;88.90;;;;;;5017068;28;19932;-61
2023/06/28 12:29:11;;;;;;;;;;;25.10;88.50;;;;;;5021950;28;19925;-62
2023/06/28 12:31:46;;;;;;;;;;;25.30;89.90;;;;;;5021446;28;20461;-61
2023/06/28 12:34:28;;;;;;;;;;;25.50;87.30;;;;;;5016885;28;19930;-61
2023/06/28 12:36:56;;;;;;;;;;;25.40;85.00;;;;;;5021629;28;19925;-61
2023/06/28 12:39:28;;;;;;;;;;;25.20;85.00;;;;;;5023866;28;20019;-63
2023/06/28 12:42:02;;;;;;;;;;;25.00;85.30;;;;;;5021454;28;20294;-63
2023/06/28 12:44:48;;;;;;;;;;;24.70;87.20;;;;;;5023891;28;19936;-64
2023/06/28 12:47:15;;;;;;;;;;;24.50;86.30;;;;;;5027531;28;19936;-63
2023/06/28 12:49:47;;;;;;;;;;;24.60;85.40;;;;;;5031735;28;20610;-63
2023/06/28 12:52:23;;;;;;;;;;;24.80;83.80;;;;;;5026332;28;20317;-63
2023/06/28 12:54:55;;;;;;;;;;;25.00;82.70;;;;;;5024100;28;20599;-63
2023/06/28 12:57:27;;;;;;;;;;;25.30;82.60;;;;;;5029641;28;19929;-63
2023/06/28 12:59:59;;;;;;;;;;;25.30;81.90;;;;;;5028371;28;19925;-63
2023/06/28 13:02:31;;;;;;;;;;;25.20;80.90;;;;;;5021637;28;19932;-63
2023/06/28 13:05:03;;;;;;;;;;;24.80;82.70;;;;;;5010233;28;20031;-63
2023/06/28 13:07:35;;;;;;;;;;;24.70;84.40;;;;;;5028026;28;19926;-63
2023/06/28 13:10:09;;;;;;;;;;;24.90;84.10;;;;;;5025179;28;19929;-63
2023/06/28 13:12:35;;;;;;;;;;;25.20;83.30;;;;;;5026908;28;19945;-64
2023/06/28 13:15:08;;;;;;;;;;;25.30;81.00;;;;;;5028322;28;20022;-64
2023/06/28 13:17:39;;;;;;;;;;;25.30;80.90;;;;;;5041071;28;19938;-63
2023/06/28 13:20:12;;;;;;;;;;;25.40;81.60;;;;;;5023376;28;20409;-63
2023/06/28 13:22:44;;;;;;;;;;;25.50;82.10;;;;;;5025415;28;19936;-63
2023/06/28 13:25:16;;;;;;;;;;;25.60;81.10;;;;;;5027829;28;19925;-63
2023/06/28 13:27:47;;;;;;;;;;;25.40;79.40;;;;;;5024615;28;20466;-63
2023/06/28 13:30:14;;;;;;;;;;;25.00;79.00;;;;;;5024348;28;19925;-63
2023/06/28 13:32:46;;;;;;;;;;;24.60;79.70;;;;;;5029999;28;19929;-63
2023/06/28 13:35:17;;;;;;;;;;;24.40;82.90;;;;;;5026356;28;20008;-64
2023/06/28 13:37:50;;;;;;;;;;;24.30;81.10;;;;;;5027886;28;20015;-63
2023/06/28 13:40:21;;;;;;;;;;;24.40;81.50;;;;;;5028019;28;20016;-63
2023/06/28 13:42:53;;;;;;;;;;;24.70;78.80;;;;;;5030855;28;19929;-63
2023/06/28 13:45:20;;;;;;;;;;;24.70;79.20;;;;;;5034564;28;20463;-65
2023/06/28 13:47:52;;;;;;;;;;;24.80;78.80;;;;;;5037197;28;19951;-68
2023/06/28 13:50:24;;;;;;;;;;;24.80;76.70;;;;;;5033859;28;19933;-67
2023/06/28 13:52:55;;;;;;;;;;;24.90;76.20;;;;;;5020237;28;19968;-64
2023/06/28 13:55:27;;;;;;;;;;;25.00;77.50;;;;;;5033295;28;19940;-65
2023/06/28 13:57:59;;;;;;;;;;;25.40;76.90;;;;;;5035230;28;19925;-64
2023/06/28 14:00:31;;;;;;;;;;;25.40;77.10;;;;;;5032383;28;20290;-64
2023/06/28 14:03:03;;;;;;;;;;;25.20;76.60;;;;;;5033675;28;19935;-65
2023/06/28 14:05:35;;;;;;;;;;;25.10;76.70;;;;;;5032067;28;20518;-64
2023/06/28 14:08:06;;;;;;;;;;;24.90;77.60;;;;;;5034710;28;19933;-64
2023/06/28 14:10:38;;;;;;;;;;;24.80;79.50;;;;;;5041832;28;19979;-64
2023/06/28 14:13:13;;;;;;;;;;;24.80;79.20;;;;;;5033181;28;20396;-63
2023/06/28 14:15:45;;;;;;;;;;;24.80;79.40;;;;;;5026250;28;19935;-63
2023/06/28 14:18:12;;;;;;;;;;;24.70;78.60;;;;;;5030571;28;20452;-63
2023/06/28 14:20:38;;;;;;;;;;;24.70;79.00;;;;;;5028807;28;20023;-63
2023/06/28 14:23:05;;;;;;;;;;;24.70;79.40;;;;;;5027272;28;20011;-63
2023/06/28 14:25:37;;;;;;;;;;;24.80;79.50;;;;;;5030703;28;19935;-63
2023/06/28 14:28:10;;;;;;;;;;;25.30;77.80;;;;;;5030304;28;20024;-63
2023/06/28 14:30:43;;;;;;;;;;;25.80;76.70;;;;;;5026326;28;19929;-63
2023/06/28 14:33:16;;;;;;;;;;;26.30;76.00;;;;;;5025096;28;19925;-64
2023/06/28 14:35:48;;;;;;;;;;;26.80;74.40;;;;;;5024454;28;19929;-63
2023/06/28 14:38:19;;;;;;;;;;;27.20;73.90;;;;;;5023034;28;20641;-63
2023/06/28 14:40:51;;;;;;;;;;;27.10;72.00;;;;;;5019015;28;20410;-63
2023/06/28 14:43:23;;;;;;;;;;;27.10;73.00;;;;;;5024220;28;20415;-64
2023/06/28 14:45:55;;;;;;;;;;;27.00;71.50;;;;;;5028515;28;19925;-64